Grand Valley, Colorado
Current Conditions -  °F | °C
As of 1:45 AM on Friday 19 Dec 2014 (Local Time) from KRIL Reporting Station
Overcast Overcast  
Wind Chill: 31°   Ceiling: 2400
Heat Index: 31°   Visibility: 10mi
Dew Point: 27°   Wind: 3mph
Humidity: 85%   Direction: 140°SE
Pressure: 30.18"   Gusts: NA
Location:  39.5849°N, 108.085°W
Report Text: KRIL 190845Z AUTO 14003KT 10SM SCT017 BKN024 OVC032 M01/M03 A3018 RMK AO2 T10061028
Loading
Personal Weather Stations






























Interactive Weather Map New forecast layout! Learn more

10-Day Weather Forecast

Advertisements
Track Severe Weather on mobile